Terminal Aerodrome Forecast
Issued by NWS Wilmington, OH

Current Version | Previous Version | Text Only | Print | Product List | Glossary Off
Versions: 1 2 3 4 5 6 7 8 9 10 11 12 13 14 15

000
FTUS41 KILN 171700
TAFDAY
TAF
KDAY 171728Z 1718/1818 28012KT P6SM OVC013
     FM180000 30008KT P6SM OVC013
     FM181200 27005KT P6SM BKN015=

USA.gov is the U.S. government's official web portal to all federal, state and local government web resources and services.